sensor_id;sensor_type;location;lat;lon;timestamp;P1;durP1;ratioP1;P2;durP2;ratioP2
5491;SDS011;2768;53.540;10.224;2022-10-18T00:03:06;7.70;;;6.80;;
5491;SDS011;2768;53.540;10.224;2022-10-18T00:09:02;14.77;;;7.63;;
5491;SDS011;2768;53.540;10.224;2022-10-18T00:14:56;8.53;;;7.23;;
5491;SDS011;2768;53.540;10.224;2022-10-18T00:20:57;15.37;;;7.20;;
5491;SDS011;2768;53.540;10.224;2022-10-18T00:26:53;9.00;;;7.40;;
5491;SDS011;2768;53.540;10.224;2022-10-18T00:32:46;11.50;;;8.23;;
5491;SDS011;2768;53.540;10.224;2022-10-18T00:38:39;10.00;;;7.87;;
5491;SDS011;2768;53.540;10.224;2022-10-18T00:50:55;9.93;;;7.90;;
5491;SDS011;2768;53.540;10.224;2022-10-18T00:56:48;12.40;;;8.43;;
5491;SDS011;2768;53.540;10.224;2022-10-18T01:02:43;11.10;;;7.83;;
5491;SDS011;2768;53.540;10.224;2022-10-18T01:08:48;12.83;;;9.20;;
5491;SDS011;2768;53.540;10.224;2022-10-18T01:14:53;8.90;;;7.43;;
5491;SDS011;2768;53.540;10.224;2022-10-18T01:21:06;9.97;;;8.57;;
5491;SDS011;2768;53.540;10.224;2022-10-18T01:27:12;12.90;;;9.17;;
5491;SDS011;2768;53.540;10.224;2022-10-18T01:33:43;13.27;;;8.73;;
5491;SDS011;2768;53.540;10.224;2022-10-18T01:39:43;11.53;;;8.87;;
5491;SDS011;2768;53.540;10.224;2022-10-18T01:45:38;9.77;;;8.77;;
5491;SDS011;2768;53.540;10.224;2022-10-18T01:51:34;12.67;;;8.87;;
5491;SDS011;2768;53.540;10.224;2022-10-18T01:57:28;12.00;;;9.97;;
5491;SDS011;2768;53.540;10.224;2022-10-18T02:03:28;12.07;;;9.77;;
5491;SDS011;2768;53.540;10.224;2022-10-18T02:09:24;19.20;;;11.13;;
5491;SDS011;2768;53.540;10.224;2022-10-18T02:15:27;11.40;;;10.30;;
5491;SDS011;2768;53.540;10.224;2022-10-18T02:21:24;13.90;;;11.43;;
5491;SDS011;2768;53.540;10.224;2022-10-18T02:27:20;17.13;;;11.90;;
5491;SDS011;2768;53.540;10.224;2022-10-18T02:33:16;15.30;;;11.47;;
5491;SDS011;2768;53.540;10.224;2022-10-18T02:39:13;10.43;;;9.33;;
5491;SDS011;2768;53.540;10.224;2022-10-18T02:45:11;17.40;;;13.90;;
5491;SDS011;2768;53.540;10.224;2022-10-18T02:51:05;12.23;;;10.40;;
5491;SDS011;2768;53.540;10.224;2022-10-18T02:56:58;15.00;;;9.60;;
5491;SDS011;2768;53.540;10.224;2022-10-18T03:02:53;10.80;;;9.80;;
5491;SDS011;2768;53.540;10.224;2022-10-18T03:08:46;12.70;;;11.10;;
5491;SDS011;2768;53.540;10.224;2022-10-18T03:14:39;13.40;;;11.70;;
5491;SDS011;2768;53.540;10.224;2022-10-18T03:20:34;10.40;;;9.30;;
5491;SDS011;2768;53.540;10.224;2022-10-18T03:26:28;9.67;;;8.67;;
5491;SDS011;2768;53.540;10.224;2022-10-18T03:32:20;12.70;;;11.43;;
5491;SDS011;2768;53.540;10.224;2022-10-18T03:38:15;10.80;;;9.53;;
5491;SDS011;2768;53.540;10.224;2022-10-18T03:44:08;9.53;;;8.53;;
5491;SDS011;2768;53.540;10.224;2022-10-18T03:50:02;12.50;;;9.87;;
5491;SDS011;2768;53.540;10.224;2022-10-18T03:55:57;13.87;;;10.70;;
5491;SDS011;2768;53.540;10.224;2022-10-18T04:01:51;15.13;;;9.90;;
5491;SDS011;2768;53.540;10.224;2022-10-18T04:07:44;10.77;;;8.83;;
5491;SDS011;2768;53.540;10.224;2022-10-18T04:13:38;11.07;;;9.87;;
5491;SDS011;2768;53.540;10.224;2022-10-18T04:19:32;11.43;;;10.33;;
5491;SDS011;2768;53.540;10.224;2022-10-18T04:25:25;11.90;;;9.77;;
5491;SDS011;2768;53.540;10.224;2022-10-18T04:31:20;10.67;;;9.53;;
5491;SDS011;2768;53.540;10.224;2022-10-18T04:37:14;10.70;;;9.50;;
5491;SDS011;2768;53.540;10.224;2022-10-18T04:43:07;10.03;;;9.10;;
5491;SDS011;2768;53.540;10.224;2022-10-18T04:49:02;9.73;;;8.73;;
5491;SDS011;2768;53.540;10.224;2022-10-18T04:54:55;11.33;;;10.10;;
5491;SDS011;2768;53.540;10.224;2022-10-18T05:00:49;10.27;;;9.27;;
5491;SDS011;2768;53.540;10.224;2022-10-18T05:06:44;19.70;;;12.33;;
5491;SDS011;2768;53.540;10.224;2022-10-18T05:12:37;14.20;;;12.27;;
5491;SDS011;2768;53.540;10.224;2022-10-18T05:18:30;12.23;;;10.90;;
5491;SDS011;2768;53.540;10.224;2022-10-18T05:24:25;17.27;;;13.90;;
5491;SDS011;2768;53.540;10.224;2022-10-18T05:30:19;16.10;;;12.27;;
5491;SDS011;2768;53.540;10.224;2022-10-18T05:36:12;17.90;;;14.27;;
5491;SDS011;2768;53.540;10.224;2022-10-18T05:42:07;24.33;;;13.40;;
5491;SDS011;2768;53.540;10.224;2022-10-18T05:48:00;17.80;;;14.27;;
5491;SDS011;2768;53.540;10.224;2022-10-18T05:53:54;22.90;;;15.00;;
5491;SDS011;2768;53.540;10.224;2022-10-18T05:59:48;20.90;;;14.27;;
5491;SDS011;2768;53.540;10.224;2022-10-18T06:05:42;20.93;;;14.77;;
5491;SDS011;2768;53.540;10.224;2022-10-18T06:11:35;26.17;;;17.70;;
5491;SDS011;2768;53.540;10.224;2022-10-18T06:17:30;24.13;;;17.80;;
5491;SDS011;2768;53.540;10.224;2022-10-18T06:23:24;28.37;;;20.00;;
5491;SDS011;2768;53.540;10.224;2022-10-18T06:29:18;25.20;;;18.80;;
5491;SDS011;2768;53.540;10.224;2022-10-18T06:35:12;25.13;;;19.87;;
5491;SDS011;2768;53.540;10.224;2022-10-18T06:41:06;24.73;;;20.20;;
5491;SDS011;2768;53.540;10.224;2022-10-18T06:47:00;27.67;;;19.37;;
5491;SDS011;2768;53.540;10.224;2022-10-18T06:52:54;27.33;;;22.73;;
5491;SDS011;2768;53.540;10.224;2022-10-18T06:58:48;27.30;;;21.57;;
5491;SDS011;2768;53.540;10.224;2022-10-18T07:04:41;27.07;;;22.03;;
5491;SDS011;2768;53.540;10.224;2022-10-18T07:10:36;29.63;;;23.90;;
5491;SDS011;2768;53.540;10.224;2022-10-18T07:16:30;32.67;;;24.80;;
5491;SDS011;2768;53.540;10.224;2022-10-18T07:22:24;30.93;;;22.57;;
5491;SDS011;2768;53.540;10.224;2022-10-18T07:28:22;28.13;;;22.27;;
5491;SDS011;2768;53.540;10.224;2022-10-18T07:34:15;24.37;;;20.63;;
5491;SDS011;2768;53.540;10.224;2022-10-18T07:40:08;22.70;;;18.00;;
5491;SDS011;2768;53.540;10.224;2022-10-18T07:46:04;25.57;;;17.80;;
5491;SDS011;2768;53.540;10.224;2022-10-18T07:51:57;25.67;;;16.50;;
5491;SDS011;2768;53.540;10.224;2022-10-18T07:57:51;22.07;;;16.60;;
5491;SDS011;2768;53.540;10.224;2022-10-18T08:03:45;25.40;;;17.23;;
5491;SDS011;2768;53.540;10.224;2022-10-18T08:09:39;23.47;;;15.90;;
5491;SDS011;2768;53.540;10.224;2022-10-18T08:15:32;24.07;;;15.40;;
5491;SDS011;2768;53.540;10.224;2022-10-18T08:21:27;19.00;;;12.47;;
5491;SDS011;2768;53.540;10.224;2022-10-18T08:27:21;20.10;;;13.57;;
5491;SDS011;2768;53.540;10.224;2022-10-18T08:33:16;24.33;;;16.10;;
5491;SDS011;2768;53.540;10.224;2022-10-18T08:39:11;25.93;;;15.07;;
5491;SDS011;2768;53.540;10.224;2022-10-18T08:45:04;23.17;;;13.60;;
5491;SDS011;2768;53.540;10.224;2022-10-18T08:51:21;19.67;;;12.40;;
5491;SDS011;2768;53.540;10.224;2022-10-18T08:57:22;19.47;;;14.43;;
5491;SDS011;2768;53.540;10.224;2022-10-18T09:03:19;19.43;;;13.80;;
5491;SDS011;2768;53.540;10.224;2022-10-18T09:09:24;20.53;;;14.40;;
5491;SDS011;2768;53.540;10.224;2022-10-18T09:15:30;21.50;;;17.17;;
5491;SDS011;2768;53.540;10.224;2022-10-18T09:21:35;20.30;;;16.60;;
5491;SDS011;2768;53.540;10.224;2022-10-18T09:27:46;20.80;;;15.03;;
5491;SDS011;2768;53.540;10.224;2022-10-18T09:33:47;22.00;;;14.83;;
5491;SDS011;2768;53.540;10.224;2022-10-18T09:39:45;26.47;;;15.93;;
5491;SDS011;2768;53.540;10.224;2022-10-18T09:45:42;18.23;;;13.67;;
5491;SDS011;2768;53.540;10.224;2022-10-18T09:51:38;19.10;;;13.37;;
5491;SDS011;2768;53.540;10.224;2022-10-18T09:57:34;20.43;;;13.20;;
5491;SDS011;2768;53.540;10.224;2022-10-18T10:03:31;15.33;;;10.63;;
5491;SDS011;2768;53.540;10.224;2022-10-18T10:09:26;18.37;;;11.83;;
5491;SDS011;2768;53.540;10.224;2022-10-18T10:15:22;14.10;;;8.27;;
5491;SDS011;2768;53.540;10.224;2022-10-18T10:21:26;11.80;;;7.23;;
5491;SDS011;2768;53.540;10.224;2022-10-18T10:27:22;9.10;;;7.00;;
5491;SDS011;2768;53.540;10.224;2022-10-18T10:33:29;11.13;;;5.70;;
5491;SDS011;2768;53.540;10.224;2022-10-18T10:39:24;7.43;;;4.97;;
5491;SDS011;2768;53.540;10.224;2022-10-18T10:45:19;8.73;;;5.17;;
5491;SDS011;2768;53.540;10.224;2022-10-18T10:51:15;7.27;;;5.03;;
5491;SDS011;2768;53.540;10.224;2022-10-18T10:57:15;9.10;;;5.67;;
5491;SDS011;2768;53.540;10.224;2022-10-18T11:03:16;10.27;;;6.17;;
5491;SDS011;2768;53.540;10.224;2022-10-18T11:09:23;10.33;;;5.70;;
5491;SDS011;2768;53.540;10.224;2022-10-18T11:15:44;8.50;;;5.13;;
5491;SDS011;2768;53.540;10.224;2022-10-18T11:21:41;10.60;;;5.03;;
5491;SDS011;2768;53.540;10.224;2022-10-18T11:27:35;8.00;;;4.60;;
5491;SDS011;2768;53.540;10.224;2022-10-18T11:33:36;9.13;;;4.30;;
5491;SDS011;2768;53.540;10.224;2022-10-18T11:40:05;8.43;;;3.57;;
5491;SDS011;2768;53.540;10.224;2022-10-18T11:46:21;8.93;;;3.43;;
5491;SDS011;2768;53.540;10.224;2022-10-18T11:52:23;9.67;;;4.10;;
5491;SDS011;2768;53.540;10.224;2022-10-18T11:58:40;8.73;;;4.40;;
5491;SDS011;2768;53.540;10.224;2022-10-18T12:04:44;6.80;;;3.77;;
5491;SDS011;2768;53.540;10.224;2022-10-18T12:11:05;9.10;;;4.07;;
5491;SDS011;2768;53.540;10.224;2022-10-18T12:17:06;12.30;;;4.23;;
5491;SDS011;2768;53.540;10.224;2022-10-18T12:23:32;9.53;;;4.67;;
5491;SDS011;2768;53.540;10.224;2022-10-18T12:29:31;7.97;;;3.90;;
5491;SDS011;2768;53.540;10.224;2022-10-18T12:35:42;8.13;;;4.23;;
5491;SDS011;2768;53.540;10.224;2022-10-18T12:41:45;6.53;;;3.40;;
5491;SDS011;2768;53.540;10.224;2022-10-18T12:47:39;8.30;;;3.23;;
5491;SDS011;2768;53.540;10.224;2022-10-18T12:53:34;7.50;;;3.10;;
5491;SDS011;2768;53.540;10.224;2022-10-18T13:05:55;7.23;;;2.43;;
5491;SDS011;2768;53.540;10.224;2022-10-18T13:11:55;5.80;;;2.20;;
5491;SDS011;2768;53.540;10.224;2022-10-18T13:17:54;6.20;;;1.90;;
5491;SDS011;2768;53.540;10.224;2022-10-18T13:24:00;4.50;;;1.43;;
5491;SDS011;2768;53.540;10.224;2022-10-18T13:30:17;11.53;;;2.20;;
5491;SDS011;2768;53.540;10.224;2022-10-18T13:36:21;5.83;;;2.13;;
5491;SDS011;2768;53.540;10.224;2022-10-18T13:42:18;9.73;;;1.97;;
5491;SDS011;2768;53.540;10.224;2022-10-18T13:54:50;5.60;;;1.70;;
5491;SDS011;2768;53.540;10.224;2022-10-18T14:00:53;9.00;;;2.83;;
5491;SDS011;2768;53.540;10.224;2022-10-18T14:07:04;7.87;;;2.57;;
5491;SDS011;2768;53.540;10.224;2022-10-18T14:12:59;5.10;;;1.43;;
5491;SDS011;2768;53.540;10.224;2022-10-18T14:18:57;5.37;;;1.50;;
5491;SDS011;2768;53.540;10.224;2022-10-18T14:25:01;7.03;;;2.23;;
5491;SDS011;2768;53.540;10.224;2022-10-18T14:30:55;6.00;;;2.10;;
5491;SDS011;2768;53.540;10.224;2022-10-18T14:36:50;5.97;;;2.00;;
5491;SDS011;2768;53.540;10.224;2022-10-18T14:42:47;4.87;;;1.80;;
5491;SDS011;2768;53.540;10.224;2022-10-18T14:48:40;8.40;;;1.80;;
5491;SDS011;2768;53.540;10.224;2022-10-18T14:54:35;6.23;;;1.53;;
5491;SDS011;2768;53.540;10.224;2022-10-18T15:00:33;7.33;;;1.90;;
5491;SDS011;2768;53.540;10.224;2022-10-18T15:06:28;5.73;;;1.87;;
5491;SDS011;2768;53.540;10.224;2022-10-18T15:12:23;5.70;;;1.73;;
5491;SDS011;2768;53.540;10.224;2022-10-18T15:18:37;4.30;;;1.70;;
5491;SDS011;2768;53.540;10.224;2022-10-18T15:24:31;6.70;;;1.93;;
5491;SDS011;2768;53.540;10.224;2022-10-18T15:30:27;11.07;;;2.03;;
5491;SDS011;2768;53.540;10.224;2022-10-18T15:36:29;7.23;;;2.00;;
5491;SDS011;2768;53.540;10.224;2022-10-18T15:42:35;5.37;;;1.53;;
5491;SDS011;2768;53.540;10.224;2022-10-18T15:48:30;9.20;;;1.77;;
5491;SDS011;2768;53.540;10.224;2022-10-18T15:54:29;8.60;;;1.90;;
5491;SDS011;2768;53.540;10.224;2022-10-18T16:00:22;9.17;;;1.83;;
5491;SDS011;2768;53.540;10.224;2022-10-18T16:06:16;6.63;;;2.13;;
5491;SDS011;2768;53.540;10.224;2022-10-18T16:12:11;8.20;;;1.67;;
5491;SDS011;2768;53.540;10.224;2022-10-18T16:24:27;3.70;;;1.40;;
5491;SDS011;2768;53.540;10.224;2022-10-18T16:30:21;7.40;;;1.83;;
5491;SDS011;2768;53.540;10.224;2022-10-18T16:36:22;7.57;;;1.70;;
5491;SDS011;2768;53.540;10.224;2022-10-18T16:42:17;5.80;;;2.20;;
5491;SDS011;2768;53.540;10.224;2022-10-18T16:48:13;9.53;;;2.00;;
5491;SDS011;2768;53.540;10.224;2022-10-18T16:54:07;4.30;;;1.60;;
5491;SDS011;2768;53.540;10.224;2022-10-18T17:00:00;8.17;;;2.00;;
5491;SDS011;2768;53.540;10.224;2022-10-18T17:05:55;5.20;;;1.40;;
5491;SDS011;2768;53.540;10.224;2022-10-18T17:11:48;8.40;;;2.10;;
5491;SDS011;2768;53.540;10.224;2022-10-18T17:17:42;7.67;;;1.77;;
5491;SDS011;2768;53.540;10.224;2022-10-18T17:23:37;6.40;;;2.10;;
5491;SDS011;2768;53.540;10.224;2022-10-18T17:29:31;4.50;;;1.83;;
5491;SDS011;2768;53.540;10.224;2022-10-18T17:35:24;6.10;;;1.60;;
5491;SDS011;2768;53.540;10.224;2022-10-18T17:41:19;5.97;;;1.87;;
5491;SDS011;2768;53.540;10.224;2022-10-18T17:47:13;12.27;;;1.90;;
5491;SDS011;2768;53.540;10.224;2022-10-18T17:53:06;5.37;;;1.80;;
5491;SDS011;2768;53.540;10.224;2022-10-18T17:59:01;9.37;;;2.27;;
5491;SDS011;2768;53.540;10.224;2022-10-18T18:04:55;8.30;;;1.80;;
5491;SDS011;2768;53.540;10.224;2022-10-18T18:10:52;7.50;;;1.67;;
5491;SDS011;2768;53.540;10.224;2022-10-18T18:16:47;4.07;;;2.00;;
5491;SDS011;2768;53.540;10.224;2022-10-18T18:22:40;9.53;;;2.30;;
5491;SDS011;2768;53.540;10.224;2022-10-18T18:28:34;5.27;;;1.60;;
5491;SDS011;2768;53.540;10.224;2022-10-18T18:34:29;6.33;;;1.93;;
5491;SDS011;2768;53.540;10.224;2022-10-18T18:40:23;7.13;;;2.00;;
5491;SDS011;2768;53.540;10.224;2022-10-18T18:46:16;7.20;;;2.43;;
5491;SDS011;2768;53.540;10.224;2022-10-18T18:52:11;6.57;;;2.53;;
5491;SDS011;2768;53.540;10.224;2022-10-18T18:58:04;4.80;;;1.90;;
5491;SDS011;2768;53.540;10.224;2022-10-18T19:03:58;8.70;;;2.00;;
5491;SDS011;2768;53.540;10.224;2022-10-18T19:09:53;7.03;;;1.53;;
5491;SDS011;2768;53.540;10.224;2022-10-18T19:15:46;8.07;;;1.70;;
5491;SDS011;2768;53.540;10.224;2022-10-18T19:21:40;3.23;;;1.93;;
5491;SDS011;2768;53.540;10.224;2022-10-18T19:27:36;6.63;;;1.60;;
5491;SDS011;2768;53.540;10.224;2022-10-18T19:33:30;8.70;;;1.70;;
5491;SDS011;2768;53.540;10.224;2022-10-18T19:39:44;2.33;;;1.73;;
5491;SDS011;2768;53.540;10.224;2022-10-18T19:45:38;5.03;;;1.63;;
5491;SDS011;2768;53.540;10.224;2022-10-18T19:51:31;5.60;;;1.30;;
5491;SDS011;2768;53.540;10.224;2022-10-18T19:57:25;6.97;;;1.57;;
5491;SDS011;2768;53.540;10.224;2022-10-18T20:03:20;3.50;;;0.97;;
5491;SDS011;2768;53.540;10.224;2022-10-18T20:09:15;5.13;;;1.17;;
5491;SDS011;2768;53.540;10.224;2022-10-18T20:15:11;3.77;;;1.20;;
5491;SDS011;2768;53.540;10.224;2022-10-18T20:21:06;3.10;;;1.03;;
5491;SDS011;2768;53.540;10.224;2022-10-18T20:26:59;4.73;;;1.10;;
5491;SDS011;2768;53.540;10.224;2022-10-18T20:32:53;2.87;;;1.33;;
5491;SDS011;2768;53.540;10.224;2022-10-18T20:38:47;4.93;;;1.57;;
5491;SDS011;2768;53.540;10.224;2022-10-18T20:44:41;2.50;;;1.20;;
5491;SDS011;2768;53.540;10.224;2022-10-18T20:50:38;4.10;;;1.83;;
5491;SDS011;2768;53.540;10.224;2022-10-18T20:56:34;2.70;;;1.50;;
5491;SDS011;2768;53.540;10.224;2022-10-18T21:02:29;8.33;;;1.57;;
5491;SDS011;2768;53.540;10.224;2022-10-18T21:08:22;5.63;;;1.63;;
5491;SDS011;2768;53.540;10.224;2022-10-18T21:14:17;3.53;;;1.00;;
5491;SDS011;2768;53.540;10.224;2022-10-18T21:20:12;4.80;;;1.90;;
5491;SDS011;2768;53.540;10.224;2022-10-18T21:26:05;3.90;;;1.30;;
5491;SDS011;2768;53.540;10.224;2022-10-18T21:32:01;4.60;;;1.57;;
5491;SDS011;2768;53.540;10.224;2022-10-18T21:37:54;3.30;;;1.00;;
5491;SDS011;2768;53.540;10.224;2022-10-18T21:43:48;4.53;;;1.30;;
5491;SDS011;2768;53.540;10.224;2022-10-18T21:49:44;5.63;;;1.53;;
5491;SDS011;2768;53.540;10.224;2022-10-18T21:55:37;5.60;;;1.10;;
5491;SDS011;2768;53.540;10.224;2022-10-18T22:01:31;4.70;;;1.03;;
5491;SDS011;2768;53.540;10.224;2022-10-18T22:07:26;4.80;;;1.33;;
5491;SDS011;2768;53.540;10.224;2022-10-18T22:13:19;5.63;;;1.07;;
5491;SDS011;2768;53.540;10.224;2022-10-18T22:19:13;3.83;;;1.43;;
5491;SDS011;2768;53.540;10.224;2022-10-18T22:25:08;3.43;;;1.20;;
5491;SDS011;2768;53.540;10.224;2022-10-18T22:31:01;3.37;;;1.13;;
5491;SDS011;2768;53.540;10.224;2022-10-18T22:36:55;4.60;;;1.40;;
5491;SDS011;2768;53.540;10.224;2022-10-18T22:42:50;4.90;;;1.50;;
5491;SDS011;2768;53.540;10.224;2022-10-18T22:48:43;3.20;;;1.53;;
5491;SDS011;2768;53.540;10.224;2022-10-18T22:54:37;3.53;;;1.20;;
5491;SDS011;2768;53.540;10.224;2022-10-18T23:00:31;1.70;;;0.77;;
5491;SDS011;2768;53.540;10.224;2022-10-18T23:06:25;1.90;;;0.90;;
5491;SDS011;2768;53.540;10.224;2022-10-18T23:12:36;3.80;;;0.83;;
5491;SDS011;2768;53.540;10.224;2022-10-18T23:18:30;5.40;;;1.00;;
5491;SDS011;2768;53.540;10.224;2022-10-18T23:24:24;4.53;;;0.90;;
5491;SDS011;2768;53.540;10.224;2022-10-18T23:30:17;2.77;;;0.80;;
5491;SDS011;2768;53.540;10.224;2022-10-18T23:36:13;3.70;;;0.87;;
5491;SDS011;2768;53.540;10.224;2022-10-18T23:42:07;3.40;;;1.03;;
5491;SDS011;2768;53.540;10.224;2022-10-18T23:48:00;3.60;;;1.00;;
5491;SDS011;2768;53.540;10.224;2022-10-18T23:53:55;2.67;;;1.10;;
5491;SDS011;2768;53.540;10.224;2022-10-18T23:59:48;1.70;;;0.90;;
